Weather at Sunway Tower Helipad

Public forecast

Using degrees Celsius for public forecast. Weather courtesy of forecast.io.

Closest aviation weather report (METAR) to Sunway Tower Helipad

Closest report is Sultan Abdul Aziz Shah International Airport, 9.4 nm (17.3 km) W.

2024/07/21 06:00 (retrieved 39 minutes ago)

WMSA 210600Z 17012KT 140V210 9999 FEW017CB 34/25 Q1010

Closest aviation forecast (TAF) to Sunway Tower Helipad

Closest forecast is Sultan Abdul Aziz Shah International Airport, 9.4 nm (17.3 km) W.

2024/07/21 06:09 (retrieved 30 minutes ago)

TAF WMSA 210500Z 2106/2206 14006KT 9999 SCT018